Share

Trout Creek, MI

11:01 AM EDT on April 23, 2014 (GMT -0400)
Misery Bay Boat Launch (KMIWATER11) Elev 1736 ft | 46.16 °N, 89.12 °W | Change Station
Active Advisory: Special Statement

Current weather conditions updated 2 seconds ago

Clear
Clear
36.3 °F
Feels Like 34 °F
N
3.2
Wind Variable Wind from SW
Sunrise 6:55 AM
Sunset 8:54 PM
Moon Waning Crescent

Today is forecast to be Much Warmer than yesterday.

Pressure 30.15 in
Visibility 10.0 miles
Clouds Clear
Windchill 34 °F
Dew Point 29 °F
Humidity 74%
Rainfall 0.00 in
Snow Depth Not available.
UV 4 out of 16
Pollen 9.30 out of 12
Air Quality Not available.
Flu Activity Sporadic
METAR KLNL 231435Z AUTO 00000KT 10SM CLR 05/M04 A3015 RMK AO2 T00501039

More Conditions Fewer Conditions

Pressure 30.15 in
Visibility 10.0 miles
Clouds Clear
Windchill 34 °F
Dew Point 29 °F
Humidity 74%
Rainfall 0.00 in
Snow Depth Not available.
UV 4 out of 16
Pollen 9.30 out of 12
Air Quality Not available.
Flu Activity Sporadic
METAR KLNL 231435Z AUTO 00000KT 10SM CLR 05/M04 A3015 RMK AO2 T00501039

More Conditions Fewer Conditions

10-Day Weather Forecast

Almanac

Astronomy

Apr. 23, 2014 Rise Set
Actual Time 6:55 AM EDT 8:54 PM EDT
Civil Twilight 6:22 AM EDT 9:27 PM EDT
Nautical Twilight 5:42 AM EDT 10:07 PM EDT
Astronomical Twilight 4:58 AM EDT 10:51 PM EDT
Moon 3:48 AM EDT 2:42 PM EDT
Length of Visible Light 15h 04m
Length of Day
13h 59m
Tomorrow will be 3m 3s longer.
Waning Crescent, 35% of the Moon is Illuminated
Today
Waning Crescent
Apr 29
New
May 6
First Quarter
May 14
Full
May 21
Last Quarter

Today's Extremes

State Highs State Lows

Community

  • spring flowers
    spring flowers
  • Earth Day Spectrum Ove' Blue
    Earth Day Spectrum Ove' Blue
  • BARN B&W
    BARN B&W
  • April Sunset
    April Sunset
  • Waiting..
    Waiting..

WunderPhotos

Upload Photos

1,704,303 photos uploaded!

Nearby

Snow Depth

Station Depth Elevation
No new snow has been reported.

Coastal Water Temperatures

Place Temperature
No Stations Reporting

Earthquake Activity

City Distance Mag. Time & Date
No recent earthquake activity has been reported nearby.
Minimum magnitude displayed is 2.5.

Nearby Weather Stations

Station Location Temp. Windchill Dew Point Humidity Wind Precip. Elev Updated Type
RAWS KENTON MI, Nisula, MI 44 °F 44 °F 24 °F 45% SE  at  3 mph 0.00 in / hr 1262 ft 9:56 AM EDT MADIS
Misery Bay Boat Launch, Watersmeet, MI 36.3 °F 34 °F 29 °F 74% SW  at  3.2 mph - / hr 1736 ft 10:01 AM CDT Normal

Show More Stations Show Fewer Stations

What do you think?

We're not finished. Please let us know what you like, what you don't like, and what you are still missing.